Flight Track Log - Related Links

Times and Time Zones

All times are in EDT time to prevent confusion due to time zone crossing. See the DAL110 flight status page for this flight to view local times or setup timezone preferences in your user account.

Time Position Orientation Groundspeed Altitude Reporting Facility
EDT Latitude Longitude Course Direction KTS MPH feet Rate Location/Type
Thu 08:51:42 AM 33.6470 -84.4460 271° West 172 198 2,100  Level FlightAware ADS-B
Thu 08:52:12 AM 33.6500 -84.4790 276° West 222 255 2,700 1,500 Climbing FlightAware ADS-B
Thu 08:52:22 AM 33.6530 -84.4950 283° West 241 277 3,100 2,700 Climbing FlightAware ADS-B
Thu 08:52:52 AM 33.6610 -84.5360 283° West 259 298 4,500 3,800 Climbing FlightAware ADS-B
Thu 08:53:22 AM 33.6690 -84.5810 282° West 266 306 6,900 4,145 Climbing FlightAware ADS-B
Thu 08:53:47 AM 33.6750 -84.6090 284° West 266 306 8,300 3,700 Climbing FlightAware ADS-B
Thu 08:54:22 AM 33.6840 -84.6630 281° West 277 319 10,600 2,779 Climbing FlightAware ADS-B
Thu 08:55:22 AM 33.7010 -84.7690 281° West 359 413 12,700 2,640 Climbing FlightAware ADS-B
Thu 08:56:02 AM 33.7130 -84.8470 280° West 371 427 15,000 4,467 Climbing FlightAware ADS-B
Thu 08:56:52 AM 33.7270 -84.9480 279° West 344 396 19,400 4,800 Climbing FlightAware ADS-B
Thu 08:57:32 AM 33.7380 -85.0270 280° West 337 388 22,200 2,550 Climbing FlightAware ADS-B
Thu 08:58:12 AM 33.7490 -85.1040 280° West 381 438 22,800 1,341 Climbing FlightAware ADS-B
Thu 08:58:57 AM 33.7640 -85.2090 280° West 419 482 24,100 1,341 Climbing FlightAware ADS-B
Thu 08:59:37 AM 33.7760 -85.2940 280° West 425 489 24,700 1,714 Climbing FlightAware ADS-B
Thu 09:00:42 AM 33.8040 -85.4490 282° West 451 519 27,100 2,087 Climbing FlightAware ADS-B
Thu 09:01:32 AM 33.8240 -85.5690 281° West 454 522 28,700 1,067 Climbing FlightAware ADS-B
Thu 09:02:12 AM 33.8360 -85.6540 280° West 454 522 28,700 2,640 Level FlightAware ADS-B
Thu 09:02:47 AM 33.8610 -85.7580 286° West 454 522 32,000 2,329 Climbing FlightAware ADS-B
Thu 09:03:37 AM 33.8760 -85.8630 280° West 454 522 32,000  Level FlightAware ADS-B
Thu 09:04:17 AM 33.8890 -85.9480 280° West 454 522 32,000 6,941 Level FlightAware ADS-B
Thu 09:04:28 AM 33.9534 -86.0103 321° Northwest 412 474 37,900 3,789 Climbing FlightAware ADS-B
Thu 09:05:52 AM 34.0083 -86.1949 290° West 420 483 38,000 32 Climbing FlightAware ADS-B
Thu 09:07:37 AM 34.0700 -86.4150 289° West 425 489 38,000  Level FlightAware ADS-B
Thu 09:08:17 AM 34.0700 -86.4150 289° West 424 488 38,000  Level FlightAware ADS-B
Thu 09:09:12 AM 34.1270 -86.6160 289° West 424 488 38,000  Level FlightAware ADS-B
Thu 09:09:58 AM 34.1627 -86.7431 289° West 418 481 38,000  Level FlightAware ADS-B
Thu 09:10:37 AM 34.1810 -86.8120 288° West 417 480 38,000  Level FlightAware ADS-B
Thu 09:11:17 AM 34.2010 -86.8870 288° West 417 480 38,000  Level FlightAware ADS-B
Thu 09:11:57 AM 34.2210 -86.9630 288° West 417 480 38,000  Level FlightAware ADS-B
Thu 09:12:37 AM 34.2420 -87.0380 289° West 417 480 38,000  Level FlightAware ADS-B
Thu 09:13:27 AM 34.2670 -87.1320 288° West 417 480 38,000  Level FlightAware ADS-B
Thu 09:14:07 AM 34.2870 -87.2080 288° West 417 480 38,000  Level FlightAware ADS-B
Thu 09:14:47 AM 34.3070 -87.2830 288° West 417 480 38,000  Level FlightAware ADS-B
Thu 09:15:27 AM 34.3280 -87.3590 289° West 417 480 38,000  Level FlightAware ADS-B
Thu 09:16:07 AM 34.3480 -87.4340 288° West 417 480 38,000  Level FlightAware ADS-B
Thu 09:16:47 AM 34.3680 -87.5100 288° West 417 480 38,000  Level FlightAware ADS-B
Thu 09:17:37 AM 34.3940 -87.6040 289° West 417 480 38,000  Level FlightAware ADS-B
Thu 09:18:17 AM 34.4140 -87.6800 288° West 417 480 38,000  Level FlightAware ADS-B
Thu 09:18:57 AM 34.4340 -87.7560 288° West 417 480 38,000  Level FlightAware ADS-B
Thu 09:19:37 AM 34.4540 -87.8310 288° West 417 480 38,000  Level FlightAware ADS-B
Thu 09:19:56 AM 34.5208 -88.0581 288° West 422 486 38,000  Level Memphis Center
Thu 09:20:56 AM 34.5586 -88.1983 288° West 428 493 38,000  Level Memphis Center
Thu 09:21:56 AM 34.5922 -88.3339 287° West 433 498 38,000  Level Memphis Center
Thu 09:22:56 AM 34.6278 -88.4642 288° West 433 498 38,000  Level Memphis Center
Thu 09:23:56 AM 34.6672 -88.6047 289° West 414 476 38,000  Level Memphis Center
Thu 09:24:56 AM 34.7006 -88.7403 287° West 414 476 38,000  Level Memphis Center
Thu 09:25:56 AM 34.7356 -88.8761 287° West 420 483 38,000  Level Memphis Center
Thu 09:26:56 AM 34.7706 -89.0069 288° West 420 483 38,000  Level Memphis Center
Thu 09:27:56 AM 34.8053 -89.1456 287° West 420 483 38,000  Level Memphis Center
Thu 09:28:56 AM 34.8400 -89.2767 288° West 419 482 38,000  Level Memphis Center
Thu 09:29:56 AM 34.8744 -89.4128 287° West 419 482 38,000  Level Memphis Center
Thu 09:30:56 AM 34.9108 -89.5442 289° West 419 482 38,000  Level Memphis Center
Thu 09:31:56 AM 34.9469 -89.6781 288° West 419 482 38,000  Level Memphis Center
Thu 09:32:56 AM 34.9811 -89.8300 285° West 435 501 38,000  Level Memphis Center
Thu 09:33:56 AM 35.0131 -89.9667 286° West 440 506 38,000  Level Memphis Center
Thu 09:34:56 AM 35.0447 -90.1033 286° West 429 494 38,000  Level Memphis Center
Thu 09:35:56 AM 35.0783 -90.2456 286° West 429 494 38,000  Level Memphis Center
Thu 09:36:56 AM 35.1075 -90.3850 284° West 429 494 38,000  Level Memphis Center
Thu 09:37:56 AM 35.1386 -90.5247 285° West 429 494 38,000  Level Memphis Center
Thu 09:38:56 AM 35.1678 -90.6467 286° West 424 488 38,000  Level Memphis Center
Thu 09:39:56 AM 35.1986 -90.7892 285° West 424 488 38,000  Level Memphis Center
Thu 09:40:56 AM 35.2294 -90.9239 286° West 424 488 38,000  Level Memphis Center
Thu 09:41:56 AM 35.2600 -91.0639 285° West 424 488 38,000  Level Memphis Center
Thu 09:42:56 AM 35.2903 -91.2144 284° West 419 482 38,000  Level Memphis Center
Thu 09:43:56 AM 35.3247 -91.3547 287° West 418 481 38,000  Level Memphis Center
Thu 09:44:56 AM 35.3528 -91.4925 284° West 418 481 38,000  Level Memphis Center
Thu 09:45:56 AM 35.3828 -91.6303 285° West 418 481 38,000  Level Memphis Center
Thu 09:46:56 AM 35.4144 -91.7683 286° West 418 481 38,000  Level Memphis Center
Thu 09:47:56 AM 35.4419 -91.9117 283° West 418 481 38,000  Level Memphis Center
Thu 09:48:56 AM 35.4714 -92.0525 284° West 418 481 38,000  Level Memphis Center
Thu 09:49:56 AM 35.5008 -92.1906 285° West 418 481 38,000  Level Memphis Center
Thu 09:50:56 AM 35.5319 -92.3317 285° West 418 481 38,000  Level Memphis Center
Thu 09:51:57 AM 35.5589 -92.4728 283° West 418 481 38,000  Level Memphis Center
Thu 09:52:56 AM 35.5881 -92.6036 285° West 426 490 38,000  Level Memphis Center
Thu 09:53:56 AM 35.6164 -92.7500 283° West 431 496 38,000  Level Memphis Center
Thu 09:54:56 AM 35.6469 -92.8939 285° West 431 496 38,000  Level Memphis Center
Thu 09:55:56 AM 35.6753 -93.0353 284° West 434 499 38,000  Level Memphis Center
Thu 09:56:56 AM 35.7033 -93.1819 283° West 434 499 38,000  Level Memphis Center
Thu 09:57:56 AM 35.7356 -93.3289 285° West 439 505 38,000  Level Memphis Center
Thu 09:58:56 AM 35.7633 -93.4731 283° West 439 505 38,000  Level Memphis Center
Thu 09:59:56 AM 35.7928 -93.6225 284° West 439 505 38,000  Level Memphis Center
Thu 10:00:56 AM 35.8219 -93.7747 283° West 444 511 38,000  Level Memphis Center
Thu 10:01:56 AM 35.8514 -93.9219 284° West 449 517 38,000  Level Memphis Center
Thu 10:02:56 AM 35.8797 -94.0872 282° West 454 522 38,000  Level Memphis Center
Thu 10:03:56 AM 35.9083 -94.2422 283° West 454 522 38,000  Level Memphis Center
Thu 10:04:56 AM 35.9369 -94.3947 283° West 454 522 38,000  Level Memphis Center
Thu 10:05:56 AM 35.9672 -94.5475 284° West 454 522 38,000  Level Memphis Center
Thu 10:06:56 AM 35.9953 -94.7031 283° West 454 522 38,000  Level Memphis Center
Thu 10:13:37 AM 36.1880 -95.7400 283° West 470 541 38,000  Level FlightAware ADS-B
Thu 10:14:12 AM 36.1980 -95.8250 278° West 470 541 38,000  Level FlightAware ADS-B
Thu 10:15:02 AM 36.1880 -95.9740 265° West 474 545 38,000  Level FlightAware ADS-B
Thu 10:15:37 AM 36.1830 -96.0660 266° West 476 548 38,000  Level FlightAware ADS-B
Thu 10:16:17 AM 36.1780 -96.1700 267° West 477 549 38,000  Level FlightAware ADS-B
Thu 10:17:07 AM 36.1710 -96.3070 266° West 480 552 38,000  Level FlightAware ADS-B
Thu 10:18:02 AM 36.1640 -96.4580 267° West 481 554 38,000  Level FlightAware ADS-B
Thu 10:18:57 AM 36.1560 -96.6130 266° West 480 552 38,000  Level FlightAware ADS-B
Thu 10:19:42 AM 36.1490 -96.7320 266° West 478 550 38,000  Level FlightAware ADS-B
Thu 10:20:22 AM 36.1430 -96.8400 266° West 475 547 38,000  Level FlightAware ADS-B
Thu 10:21:02 AM 36.1370 -96.9450 266° West 472 543 38,000  Level FlightAware ADS-B
Thu 10:21:57 AM 36.1290 -97.0990 266° West 469 540 38,000  Level FlightAware ADS-B
Thu 10:22:37 AM 36.1230 -97.1980 266° West 468 539 38,000  Level FlightAware ADS-B
Thu 10:23:22 AM 36.1150 -97.3090 265° West 468 539 38,000  Level FlightAware ADS-B
Thu 10:24:02 AM 36.1090 -97.4340 267° West 473 544 38,000  Level FlightAware ADS-B
Thu 10:24:47 AM 36.1020 -97.5530 266° West 475 547 38,000  Level FlightAware ADS-B
Thu 10:25:27 AM 36.0960 -97.6540 266° West 475 547 38,000  Level FlightAware ADS-B
Thu 10:26:07 AM 36.0890 -97.7700 266° West 477 549 38,000  Level FlightAware ADS-B
Thu 10:26:47 AM 36.0820 -97.8740 265° West 476 548 38,000  Level FlightAware ADS-B
Thu 10:27:47 AM 36.0720 -98.0370 266° West 474 545 38,000  Level FlightAware ADS-B
Thu 10:28:32 AM 36.0640 -98.1450 265° West 474 545 38,000  Level FlightAware ADS-B
Thu 10:29:12 AM 36.0580 -98.2370 265° West 474 545 38,000  Level FlightAware ADS-B
Thu 10:29:52 AM 36.0510 -98.3280 265° West 474 545 38,000  Level FlightAware ADS-B
Thu 10:30:32 AM 36.0450 -98.4200 265° West 474 545 38,000  Level FlightAware ADS-B
Thu 10:31:12 AM 36.0380 -98.5120 265° West 474 545 38,000  Level FlightAware ADS-B
Thu 10:32:02 AM 36.0300 -98.6270 265° West 474 545 38,000  Level FlightAware ADS-B
Thu 10:32:42 AM 36.0230 -98.7190 265° West 474 545 38,000  Level FlightAware ADS-B
Thu 10:33:22 AM 36.0170 -98.8110 265° West 474 545 38,000  Level FlightAware ADS-B
Thu 10:34:02 AM 36.0100 -98.9020 265° West 474 545 38,000  Level FlightAware ADS-B
Thu 10:34:52 AM 36.0020 -99.0170 265° West 474 545 38,000  Level FlightAware ADS-B
Thu 10:35:32 AM 35.9960 -99.1090 265° West 474 545 38,000  Level FlightAware ADS-B
Thu 10:36:12 AM 35.9890 -99.2010 265° West 474 545 38,000  Level FlightAware ADS-B
Thu 10:36:52 AM 35.9830 -99.2930 265° West 474 545 38,000  Level FlightAware ADS-B
Thu 10:37:32 AM 35.9760 -99.3840 265° West 474 545 38,000  Level FlightAware ADS-B
Thu 10:37:56 AM 35.9578 -99.6253 265° West 449 517 38,000  Level Albuquerque Center
Thu 10:38:41 AM 35.9503 -99.7183 264° West 449 517 38,000  Level Kansas City Center
Thu 10:39:43 AM 35.9353 -99.9036 264° West 451 519 38,000  Level Kansas City Center
Thu 10:40:45 AM 35.9219 -100.0564 264° West 448 516 38,000  Level Kansas City Center
Thu 10:41:47 AM 35.9097 -100.2108 264° West 451 519 38,000  Level Kansas City Center
Thu 10:42:04 AM 35.9075 -100.2417 265° West 452 520 38,000  Level Albuquerque Center
Thu 10:43:06 AM 35.8953 -100.3950 264° West 450 518 38,000  Level Albuquerque Center
Thu 10:44:08 AM 35.8792 -100.5794 264° West 450 518 38,000  Level Albuquerque Center
Thu 10:45:10 AM 35.8653 -100.7325 264° West 450 518 38,000  Level Albuquerque Center
Thu 10:46:12 AM 35.8525 -100.8861 264° West 450 518 38,000  Level Albuquerque Center
Thu 10:47:14 AM 35.8408 -101.0258 264° West 449 517 38,000  Level Albuquerque Center
Thu 10:48:16 AM 35.8242 -101.2078 264° West 448 516 38,000  Level Albuquerque Center
Thu 10:49:18 AM 35.8108 -101.3592 264° West 448 516 38,000  Level Albuquerque Center
Thu 10:50:20 AM 35.7931 -101.5106 262° West 450 518 38,000  Level Albuquerque Center
Thu 10:51:22 AM 35.7747 -101.6631 262° West 452 520 38,000  Level Albuquerque Center
Thu 10:52:24 AM 35.7553 -101.8164 261° West 457 526 38,000  Level Albuquerque Center
Thu 10:53:26 AM 35.7347 -101.9978 262° West 452 520 38,000  Level Albuquerque Center
Thu 10:54:28 AM 35.7158 -102.1506 261° West 454 522 38,000  Level Albuquerque Center
Thu 10:55:30 AM 35.6967 -102.3039 261° West 456 525 38,000  Level Albuquerque Center
Thu 10:56:32 AM 35.6767 -102.4569 261° West 455 524 38,000  Level Albuquerque Center
Thu 10:57:34 AM 35.6575 -102.6100 261° West 456 525 38,000  Level Albuquerque Center
Thu 10:58:36 AM 35.6336 -102.7914 261° West 453 521 38,000  Level Albuquerque Center
Thu 10:59:38 AM 35.6150 -102.9489 262° West 449 517 38,000  Level Albuquerque Center
Thu 11:00:40 AM 35.5936 -103.1033 260° West 454 522 38,000  Level Albuquerque Center
Thu 11:01:42 AM 35.5744 -103.2569 261° West 453 521 38,000  Level Albuquerque Center
Thu 11:02:44 AM 35.5528 -103.4139 260° West 460 529 38,000  Level Albuquerque Center
Thu 11:03:46 AM 35.5328 -103.5678 261° West 457 526 38,000  Level Albuquerque Center
Thu 11:04:48 AM 35.5108 -103.7211 260° West 455 524 38,000  Level Albuquerque Center
Thu 11:05:50 AM 35.4911 -103.8717 261° West 449 517 38,000  Level Albuquerque Center
Thu 11:06:52 AM 35.4667 -104.0486 260° West 449 517 38,000  Level Albuquerque Center
Thu 11:07:54 AM 35.4458 -104.1992 260° West 450 518 38,000  Level Albuquerque Center
Thu 11:08:56 AM 35.4225 -104.3500 259° West 452 520 38,000  Level Albuquerque Center
Thu 11:09:58 AM 35.4003 -104.5008 260° West 452 520 38,000  Level Albuquerque Center
Thu 11:11:00 AM 35.3786 -104.6539 260° West 454 522 38,000  Level Albuquerque Center
Thu 11:12:02 AM 35.3517 -104.8311 259° West 452 520 38,000  Level Albuquerque Center
Thu 11:13:04 AM 35.3300 -104.9828 260° West 450 518 38,000  Level Albuquerque Center
Thu 11:18:52 AM 35.2010 -105.8330 260° West 436 502 38,000  Level FlightAware ADS-B
Thu 11:19:37 AM 35.1850 -105.9330 259° West 437 503 38,000  Level FlightAware ADS-B
Thu 11:20:22 AM 35.1670 -106.0540 260° West 445 512 38,000  Level FlightAware ADS-B
Thu 11:21:02 AM 35.1510 -106.1530 259° West 445 512 38,000  Level FlightAware ADS-B
Thu 11:21:42 AM 35.1350 -106.2520 259° West 447 514 38,000  Level FlightAware ADS-B
Thu 11:22:27 AM 35.1170 -106.3660 259° West 446 513 38,000  Level FlightAware ADS-B
Thu 11:23:07 AM 35.1010 -106.4660 259° West 447 514 38,000  Level FlightAware ADS-B
Thu 11:23:52 AM 35.0830 -106.5740 259° West 450 518 38,000  Level FlightAware ADS-B
Thu 11:24:32 AM 35.0670 -106.6730 259° West 450 518 38,000  Level FlightAware ADS-B
Thu 11:25:12 AM 35.0510 -106.7750 259° West 451 519 38,000  Level FlightAware ADS-B
Thu 11:25:57 AM 35.0420 -106.8900 265° West 454 522 38,000  Level FlightAware ADS-B
Thu 11:26:37 AM 35.0390 -106.9940 268° West 454 522 38,000  Level FlightAware ADS-B
Thu 11:27:22 AM 35.0370 -107.1030 269° West 456 525 38,000  Level FlightAware ADS-B
Thu 11:28:02 AM 35.0340 -107.2080 268° West 459 528 38,000  Level FlightAware ADS-B
Thu 11:28:42 AM 35.0310 -107.3120 268° West 459 528 38,000  Level FlightAware ADS-B
Thu 11:29:27 AM 35.0280 -107.4300 268° West 456 525 38,000  Level FlightAware ADS-B
Thu 11:30:07 AM 35.0250 -107.5330 268° West 454 522 38,000  Level FlightAware ADS-B
Thu 11:30:47 AM 35.0220 -107.6320 268° West 450 518 38,000  Level FlightAware ADS-B
Thu 11:31:32 AM 35.0180 -107.7460 268° West 447 514 38,000  Level FlightAware ADS-B
Thu 11:32:12 AM 35.0150 -107.8400 268° West 446 513 38,000  Level FlightAware ADS-B
Thu 11:32:57 AM 35.0110 -107.9460 267° West 445 512 38,000  Level FlightAware ADS-B
Thu 11:33:37 AM 35.0080 -108.0610 268° West 447 514 38,000  Level FlightAware ADS-B
Thu 11:34:22 AM 35.0040 -108.1730 268° West 446 513 38,000  Level FlightAware ADS-B
Thu 11:35:02 AM 35.0010 -108.2700 268° West 446 513 38,000  Level FlightAware ADS-B
Thu 11:35:57 AM 34.9950 -108.4130 267° West 444 511 38,000  Level FlightAware ADS-B
Thu 11:36:42 AM 34.9910 -108.5240 268° West 444 511 38,000  Level FlightAware ADS-B
Thu 11:37:12 AM 34.9880 -108.5980 267° West 445 512 38,000  Level FlightAware ADS-B
Thu 11:38:12 AM 34.9830 -108.7400 268° West 446 513 38,000  Level FlightAware ADS-B
Thu 11:38:52 AM 34.9790 -108.8260 267° West 446 513 38,000  Level FlightAware ADS-B
Thu 11:39:42 AM 34.9740 -108.9330 267° West 446 513 38,000  Level FlightAware ADS-B
Thu 11:40:22 AM 34.9710 -109.0180 268° West 446 513 38,000  Level FlightAware ADS-B
Thu 11:41:02 AM 34.9650 -109.1780 267° West 444 511 38,000  Level FlightAware ADS-B
Thu 11:41:47 AM 34.9570 -109.2860 265° West 442 509 38,000  Level FlightAware ADS-B
Thu 11:42:27 AM 34.9500 -109.3860 265° West 442 509 38,000  Level FlightAware ADS-B
Thu 11:43:12 AM 34.9430 -109.4940 266° West 441 507 38,000  Level FlightAware ADS-B
Thu 11:43:52 AM 34.9360 -109.5980 265° West 440 506 38,000  Level FlightAware ADS-B
Thu 11:44:32 AM 34.9290 -109.6990 265° West 442 509 38,000  Level FlightAware ADS-B
Thu 11:45:17 AM 34.9220 -109.8040 265° West 444 511 38,000  Level FlightAware ADS-B
Thu 11:45:57 AM 34.9150 -109.9030 265° West 445 512 38,000  Level FlightAware ADS-B
Thu 11:46:37 AM 34.9070 -110.0050 265° West 445 512 38,000  Level FlightAware ADS-B
Thu 11:47:22 AM 34.8990 -110.1170 265° West 446 513 38,000  Level FlightAware ADS-B
Thu 11:48:07 AM 34.8910 -110.2310 265° West 446 513 38,000  Level FlightAware ADS-B
Thu 11:48:47 AM 34.8830 -110.3320 265° West 447 514 38,000  Level FlightAware ADS-B
Thu 11:49:27 AM 34.8760 -110.4310 265° West 447 514 38,000  Level FlightAware ADS-B
Thu 11:50:12 AM 34.8670 -110.5450 265° West 447 514 38,000  Level FlightAware ADS-B
Thu 11:50:52 AM 34.8590 -110.6480 265° West 447 514 38,000  Level FlightAware ADS-B
Thu 11:51:37 AM 34.8500 -110.7580 264° West 448 516 38,000  Level FlightAware ADS-B
Thu 11:52:12 AM 34.8430 -110.8470 265° West 448 516 38,000  Level FlightAware ADS-B
Thu 11:53:02 AM 34.8330 -110.9720 264° West 449 517 38,000  Level FlightAware ADS-B
Thu 11:53:42 AM 34.8250 -111.0720 264° West 448 516 38,000  Level FlightAware ADS-B
Thu 11:54:27 AM 34.8160 -111.1840 264° West 450 518 38,000  Level FlightAware ADS-B
Thu 11:55:07 AM 34.8080 -111.2860 265° West 450 518 38,000  Level FlightAware ADS-B
Thu 11:55:52 AM 34.7980 -111.3970 264° West 449 517 38,000  Level FlightAware ADS-B
Thu 11:56:32 AM 34.7900 -111.4980 265° West 447 514 38,000  Level FlightAware ADS-B
Thu 11:57:12 AM 34.7820 -111.5960 264° West 446 513 38,000  Level FlightAware ADS-B
Thu 11:57:57 AM 34.7720 -111.7120 264° West 448 516 38,000  Level FlightAware ADS-B
Thu 11:58:37 AM 34.7630 -111.8120 264° West 450 518 38,000  Level FlightAware ADS-B
Thu 11:59:17 AM 34.7540 -111.9130 264° West 449 517 38,000  Level FlightAware ADS-B
Thu 12:00:02 PM 34.7440 -112.0260 264° West 449 517 38,000  Level FlightAware ADS-B
Thu 12:00:42 PM 34.7350 -112.1250 264° West 451 519 38,000  Level FlightAware ADS-B
Thu 12:01:27 PM 34.7250 -112.2360 264° West 452 520 38,000  Level FlightAware ADS-B
Thu 12:02:07 PM 34.7160 -112.3370 264° West 452 520 38,000  Level FlightAware ADS-B
Thu 12:02:47 PM 34.7020 -112.4380 260° West 453 521 38,000  Level FlightAware ADS-B
Thu 12:03:32 PM 34.6850 -112.5490 259° West 452 520 38,000  Level FlightAware ADS-B
Thu 12:04:12 PM 34.6670 -112.6530 258° West 450 518 38,000  Level FlightAware ADS-B
Thu 12:04:52 PM 34.6510 -112.7490 259° West 447 514 38,000  Level FlightAware ADS-B
Thu 12:05:37 PM 34.6330 -112.8580 259° West 447 514 38,000  Level FlightAware ADS-B
Thu 12:06:17 PM 34.6170 -112.9560 259° West 446 513 38,000  Level FlightAware ADS-B
Thu 12:07:02 PM 34.5980 -113.0690 258° West 446 513 38,000  Level FlightAware ADS-B
Thu 12:07:42 PM 34.5820 -113.1670 259° West 446 513 38,000  Level FlightAware ADS-B
Thu 12:08:27 PM 34.5640 -113.2740 258° West 448 516 38,000  Level FlightAware ADS-B
Thu 12:09:07 PM 34.5470 -113.3730 258° West 448 516 38,000  Level FlightAware ADS-B
Thu 12:09:52 PM 34.5270 -113.4870 258° West 451 519 38,000  Level FlightAware ADS-B
Thu 12:10:22 PM 34.5150 -113.5600 259° West 453 521 38,000  Level FlightAware ADS-B
Thu 12:11:02 PM 34.4980 -113.6580 258° West 451 519 38,000  Level FlightAware ADS-B
Thu 12:11:37 PM 34.4830 -113.7450 258° West 449 517 38,000  Level FlightAware ADS-B
Thu 12:12:17 PM 34.4660 -113.8410 258° West 448 516 38,000  Level FlightAware ADS-B
Thu 12:13:02 PM 34.4460 -113.9540 258° West 445 512 38,000  Level FlightAware ADS-B
Thu 12:13:42 PM 34.4290 -114.0520 258° West 444 511 38,000  Level FlightAware ADS-B
Thu 12:14:27 PM 34.4100 -114.1580 258° West 443 510 38,000  Level FlightAware ADS-B
Thu 12:15:07 PM 34.3930 -114.2540 258° West 445 512 38,000  Level FlightAware ADS-B
Thu 12:15:47 PM 34.3760 -114.3520 258° West 445 512 38,000  Level FlightAware ADS-B
Thu 12:16:47 PM 34.3500 -114.4880 257° West 445 512 38,000  Level FlightAware ADS-B
Thu 12:17:27 PM 34.3320 -114.5940 258° West 449 517 38,000  Level FlightAware ADS-B
Thu 12:18:02 PM 34.3160 -114.6760 257° West 450 518 38,000  Level FlightAware ADS-B
Thu 12:18:52 PM 34.2940 -114.8000 258° West 453 521 38,000  Level FlightAware ADS-B
Thu 12:19:27 PM 34.2780 -114.8890 258° West 455 524 38,000  Level FlightAware ADS-B
Thu 12:20:12 PM 34.2590 -114.9900 257° West 455 524 38,000  Level FlightAware ADS-B
Thu 12:20:52 PM 34.2430 -115.0740 257° West 455 524 38,000 -1,271 Level FlightAware ADS-B
Thu 12:21:37 PM 34.2180 -115.2140 258° West 461 531 36,200 -1,533 Descending FlightAware ADS-B
Thu 12:22:22 PM 34.1960 -115.3290 257° West 456 525 35,700 -776 Descending FlightAware ADS-B
Thu 12:23:02 PM 34.1780 -115.4280 258° West 454 522 35,100 -750 Descending FlightAware ADS-B
Thu 12:23:42 PM 34.1580 -115.5300 257° West 449 517 34,700 -565 Descending FlightAware ADS-B
Thu 12:24:27 PM 34.1390 -115.6320 257° West 447 514 34,300 -635 Descending FlightAware ADS-B
Thu 12:25:07 PM 34.1190 -115.7330 257° West 444 511 33,800 -635 Descending FlightAware ADS-B
Thu 12:25:52 PM 34.1000 -115.8450 258° West 442 509 33,400 -635 Descending FlightAware ADS-B
Thu 12:26:32 PM 34.0870 -115.9400 261° West 440 506 32,900 -675 Descending FlightAware ADS-B
Thu 12:27:12 PM 34.0730 -116.0380 260° West 439 505 32,500 -1,200 Descending FlightAware ADS-B
Thu 12:27:57 PM 34.0580 -116.1400 260° West 430 495 31,200 -1,906 Descending FlightAware ADS-B
Thu 12:28:37 PM 34.0430 -116.2360 259° West 420 483 29,800 -1,976 Descending FlightAware ADS-B
Thu 12:29:22 PM 34.0270 -116.3400 260° West 407 468 28,400 -1,765 Descending FlightAware ADS-B
Thu 12:30:02 PM 34.0140 -116.4240 259° West 396 456 27,300 -1,950 Descending FlightAware ADS-B
Thu 12:30:42 PM 34.0030 -116.5130 262° West 393 452 25,800 -2,047 Descending FlightAware ADS-B
Thu 12:31:27 PM 33.9950 -116.6110 264° West 383 441 24,400 -1,835 Descending FlightAware ADS-B
Thu 12:32:07 PM 33.9890 -116.6940 265° West 377 434 23,200 -1,765 Descending FlightAware ADS-B
Thu 12:32:52 PM 33.9810 -116.7860 264° West 369 425 21,900 -1,765 Descending FlightAware ADS-B
Thu 12:33:32 PM 33.9750 -116.8670 265° West 364 419 20,700 -1,835 Descending FlightAware ADS-B
Thu 12:34:17 PM 33.9670 -116.9570 264° West 358 412 19,300 -1,835 Descending FlightAware ADS-B
Thu 12:34:57 PM 33.9610 -117.0370 265° West 351 404 18,100 -1,800 Descending FlightAware ADS-B
Thu 12:35:37 PM 33.9540 -117.1150 264° West 348 400 16,900 -1,341 Descending FlightAware ADS-B
Thu 12:36:22 PM 33.9470 -117.1990 264° West 337 388 16,200 -1,200 Descending FlightAware ADS-B
Thu 12:37:02 PM 33.9410 -117.2720 264° West 332 382 15,200 -1,425 Descending FlightAware ADS-B
Thu 12:37:42 PM 33.9350 -117.3430 264° West 329 379 14,300 -1,543 Descending FlightAware ADS-B
Thu 12:38:12 PM 33.9410 -117.4000 277° West 338 389 13,400 -1,760 Descending FlightAware ADS-B
Thu 12:38:57 PM 33.9690 -117.4810 293° West 334 384 12,100 -1,341 Descending FlightAware ADS-B
Thu 12:39:37 PM 33.9830 -117.5500 284° West 315 362 11,500 -900 Descending FlightAware ADS-B
Thu 12:40:17 PM 33.9940 -117.6150 282° West 286 329 10,900 -1,059 Descending FlightAware ADS-B
Thu 12:41:02 PM 34.0040 -117.6840 280° West 280 322 10,000 -1,059 Descending FlightAware ADS-B
Thu 12:41:42 PM 34.0010 -117.7440 267° West 276 318 9,400 -1,029 Descending FlightAware ADS-B
Thu 12:42:12 PM 33.9960 -117.7910 263° West 273 314 8,800 -1,418 Descending FlightAware ADS-B
Thu 12:42:37 PM 33.9920 -117.8300 263° West 271 312 8,100 -1,418 Descending FlightAware ADS-B
Thu 12:43:07 PM 33.9880 -117.8730 264° West 267 307 7,500 -1,200 Descending FlightAware ADS-B
Thu 12:43:32 PM 33.9850 -117.9100 264° West 269 310 7,000 -1,200 Descending FlightAware ADS-B
Thu 12:44:02 PM 33.9800 -117.9540 262° West 267 307 6,400 -1,100 Descending FlightAware ADS-B
Thu 12:44:32 PM 33.9760 -117.9980 264° West 250 288 5,900 -1,067 Descending FlightAware ADS-B
Thu 12:44:47 PM 33.9740 -118.0190 263° West 239 275 5,600 -1,050 Descending FlightAware ADS-B
Thu 12:45:12 PM 33.9710 -118.0490 263° West 217 250 5,200 -764 Descending FlightAware ADS-B
Thu 12:45:42 PM 33.9670 -118.0840 262° West 220 253 4,900 -873 Descending FlightAware ADS-B
Thu 12:46:07 PM 33.9640 -118.1150 263° West 214 246 4,400 -1,200 Descending FlightAware ADS-B
Thu 12:46:22 PM 33.9630 -118.1330 266° West 199 229 4,100 -1,067 Descending FlightAware ADS-B
Thu 12:46:52 PM 33.9590 -118.1640 261° West 191 220 3,600 -1,067 Descending FlightAware ADS-B
Thu 12:47:07 PM 33.9580 -118.1810 266° West 192 221 3,300 -1,050 Descending FlightAware ADS-B
Thu 12:47:32 PM 33.9550 -118.2060 262° West 197 227 2,900 -982 Descending FlightAware ADS-B
Thu 12:48:02 PM 33.9520 -118.2380 264° West 190 219 2,400 -857 Descending FlightAware ADS-B
Thu 12:48:42 PM 33.9490 -118.2700 264° West 189 217 1,900 -764 Descending FlightAware ADS-B
Thu 12:48:57 PM 33.9470 -118.2850 261° West 179 206 1,700 -933 Descending FlightAware ADS-B
Thu 12:49:27 PM 33.9440 -118.3130 263° West 168 193 1,200 -873 Descending FlightAware ADS-B
Thu 12:49:52 PM 33.9430 -118.3310 266° West 147 169 900 -720 Descending FlightAware ADS-B
Thu 12:50:17 PM 33.9400 -118.3530 261° West 145 167 600 -500 Descending FlightAware ADS-B
Thu 12:50:52 PM 33.9380 -118.3810 265° West 146 168 400 -343 Descending FlightAware ADS-B

Login

Don't have an account? Register now (free) for customized features, flight alerts, and more!